Milford, Texas
Current Conditions -  °F | °C
As of 11:15 AM on Friday 24 Oct 2014 (Local Time) from KINJ Reporting Station
Clear Clear  
Wind Chill: 23°   Ceiling: Unl
Heat Index: 23°   Visibility: 10mi
Dew Point: 12°   Wind: 10mph
Humidity: 49%   Direction: 170°S
Pressure: 30.19"   Gusts: NA
Location:  32.12°N, 96.95°W
Report Text: KINJ 241615Z AUTO 17009KT 10SM CLR 23/12 A3019 RMK AO2 T02310117
Loading
Personal Weather Stations






























Interactive Weather Map
Tropical Storm Tracking
New forecast layout! Learn more

10-Day Weather Forecast

Advertisements
Track Severe Weather on mobile